Time;durP1;ratioP1;P1;durP2;ratioP2;P2;SDS_P1;SDS_P2;PMS_P1;PMS_P2;Temp;Humidity;BMP_temperature;BMP_pressure;BME280_temperature;BME280_humidity;BME280_pressure;Samples;Min_cycle;Max_cycle;Signal;HPM_P1;HPM_P2
2023/02/27 00:04:11;;;;;;;1.73;1.50;;;;;;;19.69;43.43;97732.38;4971422;28;20200;-94
2023/02/27 00:07:31;;;;;;;1.60;1.30;;;;;;;18.78;43.44;97556.19;4957988;28;20263;-92
2023/02/27 00:10:22;;;;;;;1.60;1.50;;;;;;;18.38;43.62;97499.41;4974638;28;20234;-93
2023/02/27 00:14:11;;;;;;;1.40;1.30;;;;;;;18.54;43.36;97532.28;4968061;28;20282;-94
2023/02/27 00:17:09;;;;;;;1.27;1.17;;;;;;;20.07;43.36;97800.19;4971490;28;20200;-94
2023/02/27 00:20:56;;;;;;;1.50;1.40;;;;;;;17.22;43.25;97324.94;4986582;28;20229;-92
2023/02/27 00:23:56;;;;;;;1.30;1.20;;;;;;;16.94;43.17;97281.44;4930275;28;20253;-93
2023/02/27 00:27:01;;;;;;;1.40;1.30;;;;;;;17.75;43.16;97417.06;4944439;28;20274;-94
2023/02/27 00:30:14;;;;;;;1.50;1.40;;;;;;;17.35;43.06;97339.06;4931580;28;20189;-94
2023/02/27 00:33:02;;;;;;;1.00;1.00;;;;;;;18.48;43.25;97553.28;4992493;28;20192;-93
2023/02/27 00:39:41;;;;;;;1.30;1.20;;;;;;;17.56;42.98;97396.72;4980903;28;20197;-92
2023/02/27 00:46:12;;;;;;;;;;;;;;;;;;;;;
2023/02/27 00:53:01;;;;;;;1.67;1.57;;;;;;;18.58;43.06;97568.13;4998645;28;20199;-93
2023/02/27 00:59:48;;;;;;;1.93;1.67;;;;;;;20.24;43.10;97832.34;4937418;28;20201;-93
2023/02/27 01:03:23;;;;;;;1.40;1.30;;;;;;;16.92;42.92;97257.63;4911961;28;20210;-93
2023/02/27 01:06:40;;;;;;;1.43;1.33;;;;;;;18.52;42.77;97547.50;4778897;29;20231;-93
2023/02/27 01:09:43;;;;;;;1.50;1.40;;;;;;;17.27;42.80;97338.72;4860595;29;20191;-93
2023/02/27 01:13:01;;;;;;;1.47;1.30;;;;;;;20.22;43.00;97834.84;4818297;29;20225;-93
2023/02/27 01:32:26;;;;;;;1.50;1.37;;;;;;;19.23;42.76;97649.75;4989010;28;20222;-89
2023/02/27 01:34:53;;;;;;;1.27;1.17;;;;;;;20.03;43.12;97799.19;4946527;28;20203;-90
2023/02/27 01:37:19;;;;;;;1.33;1.23;;;;;;;18.63;42.66;97565.75;4947838;28;20684;-91
2023/02/27 01:39:46;;;;;;;1.47;1.37;;;;;;;19.77;42.65;97759.91;4955181;28;20228;-91
2023/02/27 01:42:18;;;;;;;1.63;1.37;;;;;;;18.86;42.86;97623.59;4965243;28;20583;-90
2023/02/27 01:45:08;;;;;;;1.40;1.27;;;;;;;19.55;42.89;97721.63;4958589;28;20214;-93
2023/02/27 01:47:35;;;;;;;1.77;1.40;;;;;;;20.06;42.67;97806.09;4966381;28;20207;-93
2023/02/27 01:50:02;;;;;;;1.97;1.47;;;;;;;18.81;42.44;97589.44;4939484;28;20731;-91
2023/02/27 01:52:28;;;;;;;1.47;1.37;;;;;;;19.04;43.27;97629.44;4943238;28;20235;-91
2023/02/27 01:54:55;;;;;;;2.07;1.50;;;;;;;18.99;42.42;97615.63;4958394;28;20242;-92
2023/02/27 01:57:21;;;;;;;1.77;1.30;;;;;;;18.98;42.55;97619.84;4957743;28;20211;-92
2023/02/27 01:59:48;;;;;;;1.47;1.37;;;;;;;19.39;42.59;97685.28;4939196;28;20223;-91
2023/02/27 02:02:24;;;;;;;1.30;1.20;;;;;;;19.83;42.57;97770.34;4934942;28;20484;-94
2023/02/27 02:04:50;;;;;;;1.30;1.20;;;;;;;18.84;42.61;97605.72;4966029;28;20245;-92
2023/02/27 02:07:18;;;;;;;1.40;1.30;;;;;;;19.46;42.52;97693.22;4941147;28;20238;-93
2023/02/27 02:09:47;;;;;;;1.67;1.57;;;;;;;20.28;42.56;97826.59;4941066;28;20265;-92
2023/02/27 02:12:15;;;;;;;2.00;1.70;;;;;;;18.88;42.46;97594.81;4969869;28;20214;-92
2023/02/27 02:14:42;;;;;;;1.40;1.30;;;;;;;20.28;42.47;97830.00;4950104;28;20206;-93
2023/02/27 02:17:15;;;;;;;1.30;1.20;;;;;;;20.28;42.50;97829.13;4951410;28;20262;-93
2023/02/27 02:20:19;;;;;;;1.40;1.30;;;;;;;20.29;42.37;97830.88;4969694;28;20211;-92
2023/02/27 02:23:08;;;;;;;1.40;1.30;;;;;;;20.29;42.52;97824.09;4984136;28;20618;-92
2023/02/27 02:25:55;;;;;;;1.30;1.20;;;;;;;20.29;42.36;97826.66;4989015;28;20207;-93
2023/02/27 02:28:25;;;;;;;1.50;1.40;;;;;;;20.29;42.23;97829.19;4948019;28;20203;-91
2023/02/27 02:31:01;;;;;;;1.53;1.43;;;;;;;20.29;42.36;97825.75;4967866;28;20306;-93
2023/02/27 02:33:52;;;;;;;1.50;1.40;;;;;;;20.30;42.36;97824.94;4987137;28;20198;-92
2023/02/27 02:36:27;;;;;;;1.30;1.20;;;;;;;20.30;42.47;97824.94;4968397;28;20701;-92
2023/02/27 02:39:06;;;;;;;2.00;1.57;;;;;;;20.30;42.29;97835.16;4982507;28;20206;-92
2023/02/27 02:41:55;;;;;;;1.50;1.40;;;;;;;19.73;42.26;97739.31;4970226;28;20704;-92
2023/02/27 02:44:38;;;;;;;1.50;1.40;;;;;;;20.29;42.35;97823.22;4970325;28;20211;-92
2023/02/27 02:47:11;;;;;;;1.50;1.40;;;;;;;20.29;42.18;97824.09;4974293;28;20207;-93
2023/02/27 02:49:58;;;;;;;1.40;1.30;;;;;;;20.27;42.25;97825.69;4966369;28;20207;-93
2023/02/27 02:52:50;;;;;;;1.37;1.20;;;;;;;20.27;42.25;97825.69;4951601;28;20214;-93
2023/02/27 02:55:37;;;;;;;1.60;1.40;;;;;;;20.24;42.49;97827.25;4970632;28;20217;-91
2023/02/27 02:58:27;;;;;;;1.50;1.27;;;;;;;18.93;42.70;97615.38;4940997;28;20306;-92
2023/02/27 03:00:59;;;;;;;1.30;1.20;;;;;;;19.34;42.53;97686.75;4943662;28;20226;-92
2023/02/27 03:03:27;;;;;;;1.57;1.47;;;;;;;19.16;42.72;97657.94;4941494;28;20242;-93
2023/02/27 03:06:04;;;;;;;1.57;1.47;;;;;;;19.92;42.58;97795.34;4960061;28;20261;-92
2023/02/27 03:08:37;;;;;;;1.40;1.30;;;;;;;19.47;42.74;97724.66;4960105;28;20286;-92
2023/02/27 03:11:03;;;;;;;1.60;1.40;;;;;;;20.15;42.75;97842.22;4944273;28;20501;-93
2023/02/27 03:13:44;;;;;;;1.70;1.30;;;;;;;19.11;42.75;97706.16;4943358;28;20655;-92
2023/02/27 03:16:16;;;;;;;1.40;1.30;;;;;;;18.55;42.84;97574.75;4936906;28;20206;-92
2023/02/27 03:18:52;;;;;;;1.50;1.20;;;;;;;19.59;42.91;97758.28;4932020;28;20294;-93
2023/02/27 03:21:22;;;;;;;1.63;1.30;;;;;;;19.58;43.07;97760.00;4958053;28;20257;-93
2023/02/27 03:23:49;;;;;;;1.50;1.40;;;;;;;19.44;42.99;97767.88;4952429;28;20203;-92
2023/02/27 03:26:18;;;;;;;1.40;1.30;;;;;;;19.33;42.98;97720.69;4943542;28;20205;-92
2023/02/27 03:29:03;;;;;;;1.43;1.33;;;;;;;19.43;43.18;97741.53;4944480;28;20199;-93
2023/02/27 03:31:38;;;;;;;4.27;1.73;;;;;;;20.02;43.13;97843.38;4939216;28;20227;-93
2023/02/27 03:34:28;;;;;;;1.47;1.27;;;;;;;20.02;43.17;97843.38;4992562;28;20666;-93
2023/02/27 03:37:00;;;;;;;1.40;1.30;;;;;;;20.00;43.18;97839.91;4965435;28;20303;-93
2023/02/27 03:39:30;;;;;;;1.87;1.40;;;;;;;19.98;43.20;97839.84;4964231;28;20199;-92
2023/02/27 03:41:59;;;;;;;1.60;1.20;;;;;;;19.99;43.20;97850.91;4963714;28;20362;-92
2023/02/27 03:44:52;;;;;;;1.43;1.33;;;;;;;19.19;43.20;97714.13;4963564;28;20575;-93
2023/02/27 03:47:18;;;;;;;1.53;1.37;;;;;;;19.79;43.33;97818.63;4965948;28;20627;-93
2023/02/27 03:49:45;;;;;;;1.40;1.30;;;;;;;19.18;43.12;97713.25;4952124;28;20209;-90
2023/02/27 03:52:11;;;;;;;1.17;1.07;;;;;;;19.57;43.19;97788.81;4956972;28;20195;-92
2023/02/27 03:54:42;;;;;;;2.10;1.60;;;;;;;19.23;43.24;97733.81;4957360;28;20203;-92
2023/02/27 03:57:10;;;;;;;1.43;1.33;;;;;;;19.26;43.24;97731.41;4963470;28;20298;-93
2023/02/27 03:59:37;;;;;;;1.60;1.40;;;;;;;18.88;43.36;97667.78;4957019;28;20199;-92
2023/02/27 04:02:03;;;;;;;1.90;1.70;;;;;;;18.93;43.19;97701.97;4955634;28;20230;-93
2023/02/27 04:04:30;;;;;;;1.33;1.23;;;;;;;19.16;42.87;97736.94;4975725;28;20198;-93
2023/02/27 04:10:09;;;;;;;1.50;1.40;;;;;;;19.55;42.94;97784.47;4978697;28;20261;-92
2023/02/27 04:12:55;;;;;;;2.20;1.33;;;;;;;19.99;42.92;97866.22;4961427;28;20206;-93
2023/02/27 04:15:59;;;;;;;1.40;1.30;;;;;;;19.98;42.98;97864.47;4973353;28;20298;-90
2023/02/27 04:18:50;;;;;;;2.90;1.70;;;;;;;19.34;42.77;97751.34;4976189;28;20199;-92
2023/02/27 04:21:26;;;;;;;1.73;1.50;;;;;;;19.98;43.11;97873.81;4959915;28;20257;-92
2023/02/27 04:23:56;;;;;;;1.50;1.40;;;;;;;18.86;43.00;97680.47;4986354;28;20202;-93
2023/02/27 04:26:36;;;;;;;1.73;1.50;;;;;;;18.80;42.94;97681.91;4988866;28;20290;-92
2023/02/27 04:29:13;;;;;;;1.50;1.40;;;;;;;19.02;43.08;97728.72;4955079;28;20210;-92
2023/02/27 04:31:58;;;;;;;1.53;1.43;;;;;;;19.94;42.95;97876.25;4970392;28;20227;-93
2023/02/27 04:34:33;;;;;;;1.33;1.20;;;;;;;19.94;43.15;97875.34;4957079;28;20631;-92
2023/02/27 04:37:19;;;;;;;1.30;1.20;;;;;;;18.40;42.87;97612.28;4970778;28;20270;-91
2023/02/27 04:39:55;;;;;;;1.77;1.30;;;;;;;19.18;43.06;97738.72;4968049;28;20230;-92
2023/02/27 04:42:24;;;;;;;1.50;1.40;;;;;;;19.93;43.09;97876.19;4942623;28;20306;-93
2023/02/27 04:44:53;;;;;;;2.00;1.70;;;;;;;18.52;43.03;97633.16;4958773;28;20258;-91
2023/02/27 04:47:20;;;;;;;1.60;1.50;;;;;;;19.10;42.96;97734.13;4936942;28;20200;-90
2023/02/27 04:49:50;;;;;;;1.40;1.30;;;;;;;18.64;43.04;97665.09;4954308;28;20211;-92
2023/02/27 04:52:26;;;;;;;1.30;1.10;;;;;;;18.90;42.97;97700.19;4964246;28;20209;-96
2023/02/27 04:55:41;;;;;;;1.50;1.40;;;;;;;18.53;42.85;97651.03;4970486;28;20205;-95
2023/02/27 04:58:11;;;;;;;1.43;1.20;;;;;;;19.91;42.97;97896.53;4904916;29;20284;-91
2023/02/27 05:00:39;;;;;;;1.63;1.43;;;;;;;18.61;42.93;97666.63;4931923;28;20218;-92
2023/02/27 05:03:12;;;;;;;1.33;1.23;;;;;;;18.47;42.95;97621.94;4944411;28;20306;-92
2023/02/27 05:05:40;;;;;;;1.50;1.40;;;;;;;19.17;42.75;97741.19;4952118;28;20700;-94
2023/02/27 05:08:21;;;;;;;1.50;1.40;;;;;;;19.91;43.09;97870.13;4934182;28;20558;-94
2023/02/27 05:10:54;;;;;;;1.57;1.40;;;;;;;19.90;42.84;97889.66;4963751;28;20253;-94
2023/02/27 05:13:32;;;;;;;1.30;1.20;;;;;;;19.50;42.89;97801.25;4958909;28;20235;-93
2023/02/27 05:16:05;;;;;;;1.57;1.47;;;;;;;18.09;42.88;97598.19;4962824;28;20206;-92
2023/02/27 05:18:32;;;;;;;1.50;1.40;;;;;;;18.23;42.93;97606.41;4962178;28;20206;-93
2023/02/27 05:21:44;;;;;;;1.60;1.50;;;;;;;19.91;42.74;97878.66;4970704;28;20215;-92
2023/02/27 05:24:44;;;;;;;1.33;1.23;;;;;;;19.54;42.83;97815.88;4878878;29;20206;-92
2023/02/27 05:27:14;;;;;;;1.60;1.30;;;;;;;19.91;42.95;97880.34;4936323;28;20286;-93
2023/02/27 05:29:47;;;;;;;1.40;1.30;;;;;;;18.79;42.65;97698.84;4987491;28;20254;-92
2023/02/27 05:32:21;;;;;;;1.17;1.13;;;;;;;19.50;42.82;97811.44;4958141;28;20265;-93
2023/02/27 05:34:50;;;;;;;1.50;1.40;;;;;;;19.15;42.66;97750.44;4969919;28;20202;-93
2023/02/27 05:37:24;;;;;;;1.90;1.50;;;;;;;17.56;42.59;97467.88;4956270;28;20665;-93
2023/02/27 05:39:51;;;;;;;1.50;1.40;;;;;;;19.92;42.71;97876.97;4976755;28;20293;-90
2023/02/27 05:42:23;;;;;;;1.30;1.20;;;;;;;19.45;42.77;97812.97;4953224;28;20269;-93
2023/02/27 05:44:59;;;;;;;1.90;1.33;;;;;;;17.90;42.47;97527.00;4960650;28;20256;-93
2023/02/27 05:47:27;;;;;;;1.57;1.47;;;;;;;19.43;42.84;97777.22;4972372;28;20226;-90
2023/02/27 05:50:03;;;;;;;1.80;1.50;;;;;;;19.53;42.77;97824.31;4957618;28;20249;-93
2023/02/27 05:52:29;;;;;;;2.07;1.70;;;;;;;19.36;43.08;97771.78;4935212;28;20296;-93
2023/02/27 05:55:10;;;;;;;1.50;1.30;;;;;;;19.53;42.64;97830.31;4948527;28;20199;-94
2023/02/27 05:57:44;;;;;;;1.63;1.53;;;;;;;19.93;42.74;97901.69;4954107;28;20325;-92
2023/02/27 06:00:20;;;;;;;1.60;1.50;;;;;;;18.97;42.81;97732.72;4970861;28;20218;-92
2023/02/27 06:02:46;;;;;;;2.00;1.80;;;;;;;19.10;42.71;97742.63;4938235;28;20211;-93
2023/02/27 06:05:14;;;;;;;1.37;1.27;;;;;;;19.30;42.89;97805.50;4957067;28;20212;-95
2023/02/27 06:07:40;;;;;;;1.47;1.37;;;;;;;18.96;42.79;97737.75;4944106;28;20191;-90
2023/02/27 06:10:10;;;;;;;1.53;1.43;;;;;;;19.53;42.88;97811.56;4940666;28;20251;-93
2023/02/27 06:12:36;;;;;;;1.60;1.50;;;;;;;19.28;42.24;97778.25;4941790;28;20602;-93
2023/02/27 06:15:03;;;;;;;2.17;1.83;;;;;;;18.83;41.62;97704.94;4957876;28;20241;-92
2023/02/27 06:17:29;;;;;;;4.17;2.23;;;;;;;19.17;40.71;97765.00;4960387;28;20232;-93
2023/02/27 06:19:56;;;;;;;2.20;2.00;;;;;;;18.21;39.52;97601.28;4967151;28;20223;-93
2023/02/27 06:22:22;;;;;;;2.40;2.20;;;;;;;18.55;38.86;97663.81;4978690;28;20227;-93
2023/02/27 06:24:49;;;;;;;3.97;2.50;;;;;;;18.67;38.52;97688.13;4963388;28;20199;-94
2023/02/27 06:27:16;;;;;;;5.53;2.50;;;;;;;19.45;37.49;97849.50;4957610;28;20203;-93
2023/02/27 06:29:43;;;;;;;3.13;2.00;;;;;;;18.25;36.83;97637.91;4963536;28;20213;-93
2023/02/27 06:32:09;;;;;;;5.53;2.07;;;;;;;18.97;36.79;97748.00;4944608;28;20212;-92
2023/02/27 06:34:36;;;;;;;2.23;2.03;;;;;;;19.04;37.51;97780.56;4951484;28;20254;-92
2023/02/27 06:37:02;;;;;;;2.73;2.00;;;;;;;18.37;38.40;97645.19;4945073;28;20211;-91
2023/02/27 06:39:29;;;;;;;2.23;2.03;;;;;;;19.03;38.62;97765.22;4972151;28;20203;-93
2023/02/27 06:41:56;;;;;;;2.67;2.07;;;;;;;18.27;39.29;97629.53;4950201;28;20242;-92
2023/02/27 06:44:23;;;;;;;2.37;2.13;;;;;;;18.29;39.75;97639.75;4960834;28;20245;-93
2023/02/27 06:46:49;;;;;;;2.10;1.90;;;;;;;19.38;39.74;97850.03;4965309;28;20326;-93
2023/02/27 06:49:16;;;;;;;2.07;1.87;;;;;;;17.79;39.86;97565.47;4953552;28;20690;-93
2023/02/27 06:51:42;;;;;;;1.93;1.73;;;;;;;18.93;40.42;97741.06;4960762;28;20219;-93
2023/02/27 06:54:10;;;;;;;4.23;2.80;;;;;;;17.87;40.16;97561.59;4979067;28;20203;-92
2023/02/27 06:56:37;;;;;;;3.17;2.20;;;;;;;18.41;40.75;97680.19;4945039;28;20258;-91
2023/02/27 06:59:04;;;;;;;2.70;1.83;;;;;;;19.01;40.43;97772.78;4963241;28;20293;-93
2023/02/27 07:01:30;;;;;;;2.47;1.90;;;;;;;19.58;40.24;97877.25;4934414;28;20696;-93
2023/02/27 07:03:57;;;;;;;3.80;1.93;;;;;;;19.40;40.47;97837.38;4937912;28;20215;-93
2023/02/27 07:06:23;;;;;;;2.27;2.00;;;;;;;19.66;40.40;97875.03;4959605;28;20210;-93
2023/02/27 07:09:10;;;;;;;2.17;1.73;;;;;;;18.91;40.58;97747.75;4945935;28;20281;-92
2023/02/27 07:11:36;;;;;;;1.87;1.57;;;;;;;18.72;40.64;97714.66;4974251;28;20243;-93
2023/02/27 07:14:03;;;;;;;1.97;1.77;;;;;;;17.66;40.33;97563.19;4972914;28;20694;-93
2023/02/27 07:16:29;;;;;;;2.07;1.77;;;;;;;18.82;40.87;97742.25;4946725;28;20219;-92
2023/02/27 07:18:57;;;;;;;2.83;1.87;;;;;;;19.42;39.75;97843.41;4972550;28;20285;-93
2023/02/27 07:21:24;;;;;;;4.30;1.83;;;;;;;19.52;39.53;97891.41;4969499;28;20227;-93
2023/02/27 07:23:51;;;;;;;2.67;1.80;;;;;;;18.93;39.93;97770.72;4969802;28;20254;-92
2023/02/27 07:26:17;;;;;;;5.13;1.90;;;;;;;18.51;39.92;97698.47;4950805;28;20207;-93
2023/02/27 07:28:44;;;;;;;2.70;2.00;;;;;;;18.36;40.29;97666.34;4940215;28;20209;-93
2023/02/27 07:31:11;;;;;;;2.17;1.80;;;;;;;17.08;40.57;97458.03;5128525;23;20215;-93
2023/02/27 07:33:43;;;;;;;1.87;1.63;;;;;;;18.00;40.38;97604.56;4976694;28;20211;-91
2023/02/27 07:36:13;;;;;;;2.30;1.77;;;;;;;17.13;40.75;97476.91;4986026;28;20199;-92
2023/02/27 07:38:53;;;;;;;2.97;1.80;;;;;;;18.11;40.68;97637.28;4970123;28;20186;-92
2023/02/27 07:41:26;;;;;;;5.30;1.53;;;;;;;18.45;40.88;97702.41;4976800;28;20191;-92
2023/02/27 07:43:56;;;;;;;1.83;1.60;;;;;;;17.42;40.88;97501.06;4947326;28;20199;-92
2023/02/27 07:46:26;;;;;;;3.27;2.10;;;;;;;19.25;41.04;97836.69;4945812;28;20193;-92
2023/02/27 07:48:54;;;;;;;2.10;1.90;;;;;;;18.29;41.33;97662.66;4960440;28;20195;-93
2023/02/27 07:51:23;;;;;;;4.73;1.97;;;;;;;17.77;41.31;97578.09;4949441;28;20235;-93
2023/02/27 07:53:49;;;;;;;3.90;1.90;;;;;;;17.95;41.36;97606.03;4962534;28;20191;-92
2023/02/27 07:56:18;;;;;;;2.13;1.77;;;;;;;17.83;41.38;97613.97;4949186;28;20215;-92
2023/02/27 07:58:49;;;;;;;2.23;1.80;;;;;;;18.35;41.34;97701.09;4980561;28;20215;-92
2023/02/27 08:01:16;;;;;;;1.93;1.77;;;;;;;18.17;41.01;97649.41;4979491;28;20290;-92
2023/02/27 08:03:48;;;;;;;2.97;1.90;;;;;;;17.94;41.44;97648.38;4964081;28;20213;-91
2023/02/27 08:06:19;;;;;;;2.00;1.80;;;;;;;19.24;41.36;97879.13;4948451;28;20248;-92
2023/02/27 08:08:45;;;;;;;2.37;1.60;;;;;;;18.64;41.45;97766.91;4964192;28;20184;-92
2023/02/27 08:11:12;;;;;;;1.90;1.70;;;;;;;17.25;41.38;97524.81;4947813;28;20232;-92
2023/02/27 08:13:44;;;;;;;2.70;1.93;;;;;;;18.26;41.40;97682.88;4951127;28;20190;-92
2023/02/27 08:16:30;;;;;;;1.73;1.60;;;;;;;16.62;41.69;97413.59;4973171;28;20210;-93
2023/02/27 08:19:00;;;;;;;1.70;1.60;;;;;;;17.79;41.57;97594.28;4948519;28;20199;-92
2023/02/27 08:21:30;;;;;;;1.47;1.37;;;;;;;18.60;41.36;97752.31;4981760;28;20202;-93
2023/02/27 08:23:56;;;;;;;1.80;1.57;;;;;;;18.22;41.51;97678.47;4948886;28;20199;-92
2023/02/27 08:26:23;;;;;;;3.70;2.03;;;;;;;18.17;41.45;97696.06;4947375;28;20204;-92
2023/02/27 08:28:50;;;;;;;2.27;1.90;;;;;;;18.18;41.55;97695.25;4960940;28;20181;-92
2023/02/27 08:31:17;;;;;;;1.40;1.30;;;;;;;18.79;41.35;97799.81;4945964;28;20235;-92
2023/02/27 08:33:44;;;;;;;2.20;1.80;;;;;;;17.61;41.21;97565.50;4979132;28;20184;-92
2023/02/27 08:36:13;;;;;;;2.00;1.30;;;;;;;18.21;41.26;97680.13;4980809;28;20179;-92
2023/02/27 08:38:40;;;;;;;2.27;1.70;;;;;;;18.50;41.33;97760.31;4946885;28;20195;-92
2023/02/27 08:41:15;;;;;;;1.60;1.50;;;;;;;17.86;41.05;97613.25;4961725;28;20212;-92
2023/02/27 08:43:47;;;;;;;1.83;1.70;;;;;;;17.96;41.18;97635.72;4976715;28;20213;-92
2023/02/27 08:46:16;;;;;;;1.50;1.40;;;;;;;18.12;41.08;97669.53;4960681;28;20176;-92
2023/02/27 08:48:43;;;;;;;1.60;1.50;;;;;;;19.30;41.39;97896.41;4955922;28;20199;-93
2023/02/27 08:51:09;;;;;;;2.70;1.73;;;;;;;18.72;41.41;97765.59;4977203;28;20232;-92
2023/02/27 08:54:12;;;;;;;1.67;1.47;;;;;;;16.79;41.18;97442.28;4980951;28;20253;-92
2023/02/27 08:56:58;;;;;;;1.60;1.50;;;;;;;18.11;41.31;97689.81;4955922;28;20251;-92
2023/02/27 08:59:29;;;;;;;1.73;1.43;;;;;;;18.68;41.39;97790.84;4949253;28;20180;-92
2023/02/27 09:01:57;;;;;;;2.23;1.80;;;;;;;19.28;41.46;97898.00;4965598;28;20210;-92
2023/02/27 09:04:30;;;;;;;1.70;1.50;;;;;;;16.82;41.41;97472.88;4962929;28;20255;-92
2023/02/27 09:07:00;;;;;;;1.83;1.60;;;;;;;18.02;41.78;97687.75;4960305;28;20239;-93
2023/02/27 09:09:33;;;;;;;1.70;1.60;;;;;;;18.37;41.78;97745.31;4966728;28;20215;-91
2023/02/27 09:12:00;;;;;;;1.63;1.53;;;;;;;18.78;41.21;97813.34;4963014;28;20228;-92
2023/02/27 09:14:28;;;;;;;1.50;1.40;;;;;;;17.95;41.57;97677.22;4947007;28;20398;-91
2023/02/27 09:16:55;;;;;;;3.83;1.90;;;;;;;17.42;41.44;97583.25;4990324;28;20188;-91
2023/02/27 09:19:22;;;;;;;1.90;1.70;;;;;;;18.67;41.20;97789.97;4976208;28;20180;-93
2023/02/27 09:21:50;;;;;;;2.10;1.90;;;;;;;19.88;41.28;98008.63;5041924;23;20231;-94
2023/02/27 09:24:29;;;;;;;1.63;1.40;;;;;;;17.43;41.40;97601.88;4961733;28;20200;-92
2023/02/27 09:26:55;;;;;;;1.73;1.50;;;;;;;17.93;41.30;97669.53;4973657;28;20215;-93
2023/02/27 09:29:22;;;;;;;1.77;1.67;;;;;;;18.29;41.19;97733.03;4983757;28;20192;-93
2023/02/27 09:31:51;;;;;;;1.73;1.60;;;;;;;18.94;41.69;97875.22;4975505;28;20686;-92
2023/02/27 09:34:20;;;;;;;1.70;1.50;;;;;;;17.98;41.72;97698.59;4961321;28;20214;-93
2023/02/27 09:36:50;;;;;;;1.43;1.33;;;;;;;18.01;41.55;97700.38;5005955;28;20192;-92
2023/02/27 09:39:16;;;;;;;1.83;1.60;;;;;;;18.40;41.52;97764.94;4972703;28;20215;-93
2023/02/27 09:42:02;;;;;;;1.97;1.63;;;;;;;19.87;40.74;98016.22;4978000;28;20199;-93
2023/02/27 09:44:55;;;;;;;1.70;1.60;;;;;;;19.88;41.51;98010.28;5004233;28;20206;-94
2023/02/27 09:47:36;;;;;;;1.83;1.57;;;;;;;18.64;41.59;97822.03;4995343;28;20206;-92
2023/02/27 09:50:10;;;;;;;1.70;1.60;;;;;;;18.73;41.25;97817.34;4986105;28;20195;-92
2023/02/27 09:52:38;;;;;;;1.70;1.60;;;;;;;18.44;41.56;97770.22;4972172;28;20231;-93
2023/02/27 09:55:17;;;;;;;1.70;1.50;;;;;;;19.33;41.30;97920.31;4983822;28;20235;-93
2023/02/27 09:58:16;;;;;;;1.90;1.70;;;;;;;19.88;41.25;98023.94;4981219;28;20200;-93
2023/02/27 10:00:44;;;;;;;2.27;1.60;;;;;;;19.37;41.08;97962.13;4989267;28;20208;-93
2023/02/27 10:03:29;;;;;;;2.23;1.73;;;;;;;19.88;41.20;98026.47;4991057;28;20208;-93
2023/02/27 10:06:09;;;;;;;1.60;1.50;;;;;;;19.58;40.92;97986.00;5002924;28;20204;-93
2023/02/27 10:09:03;;;;;;;2.10;1.60;;;;;;;16.96;40.98;97533.63;4970608;28;20192;-92
2023/02/27 10:12:02;;;;;;;1.73;1.63;;;;;;;19.89;41.21;98035.88;4989932;28;20216;-93
2023/02/27 10:15:01;;;;;;;2.57;1.80;;;;;;;19.88;41.11;98036.69;5009119;28;20247;-93
2023/02/27 10:17:49;;;;;;;1.70;1.60;;;;;;;19.01;40.88;97912.88;4983216;28;20271;-91
2023/02/27 10:20:29;;;;;;;2.20;1.60;;;;;;;17.96;40.64;97724.72;4973912;28;20200;-92
2023/02/27 10:22:57;;;;;;;5.30;1.80;;;;;;;18.62;41.15;97826.19;4971926;28;20208;-91
2023/02/27 10:25:23;;;;;;;1.50;1.40;;;;;;;18.48;41.09;97837.41;4983539;28;20212;-92
2023/02/27 10:28:02;;;;;;;2.10;1.70;;;;;;;18.41;41.06;97818.44;4986057;28;20207;-92
2023/02/27 10:30:29;;;;;;;1.70;1.60;;;;;;;18.99;41.09;97919.59;5011620;28;20218;-92
2023/02/27 10:33:08;;;;;;;2.20;1.90;;;;;;;17.76;41.28;97695.84;4962259;28;20195;-91
2023/02/27 10:35:37;;;;;;;2.07;1.60;;;;;;;18.03;41.43;97764.91;4974659;28;20207;-93
2023/02/27 10:38:15;;;;;;;1.80;1.60;;;;;;;18.10;41.14;97757.63;4978044;28;20203;-92
2023/02/27 10:40:42;;;;;;;1.50;1.40;;;;;;;19.36;41.63;97963.78;4975349;28;20267;-92
2023/02/27 10:43:09;;;;;;;1.53;1.43;;;;;;;18.09;41.47;97744.84;4992313;28;20235;-91
2023/02/27 10:45:41;;;;;;;1.63;1.53;;;;;;;17.26;41.51;97616.31;4990187;28;20188;-92
2023/02/27 10:48:10;;;;;;;1.63;1.53;;;;;;;18.10;41.51;97774.56;4990602;28;20210;-91
2023/02/27 10:50:43;;;;;;;1.50;1.40;;;;;;;17.98;41.33;97741.81;4990502;28;20220;-91
2023/02/27 10:53:21;;;;;;;1.87;1.50;;;;;;;17.27;41.57;97618.09;4988059;28;20184;-93
2023/02/27 10:56:03;;;;;;;2.17;1.80;;;;;;;17.29;41.61;97629.16;4992833;28;20223;-91
2023/02/27 10:58:34;;;;;;;1.80;1.70;;;;;;;18.45;41.29;97827.97;4972406;28;20203;-92
2023/02/27 11:01:05;;;;;;;1.70;1.50;;;;;;;17.46;41.38;97663.91;4975062;28;20224;-92
2023/02/27 11:03:36;;;;;;;2.13;1.60;;;;;;;17.38;41.36;97632.16;4977685;28;20259;-93
2023/02/27 11:06:24;;;;;;;1.77;1.40;;;;;;;17.70;41.46;97698.09;5010367;28;20190;-92
2023/02/27 11:09:16;;;;;;;2.07;1.67;;;;;;;17.31;41.16;97624.16;4975605;28;20184;-92
2023/02/27 11:11:47;;;;;;;1.87;1.70;;;;;;;18.55;41.26;97847.94;4982218;28;20279;-92
2023/02/27 11:14:20;;;;;;;1.83;1.60;;;;;;;18.09;40.85;97762.66;4989683;28;20203;-91
2023/02/27 11:17:08;;;;;;;2.23;1.67;;;;;;;19.84;41.33;98062.84;4992052;28;20195;-92
2023/02/27 11:19:37;;;;;;;2.20;1.80;;;;;;;19.23;41.00;97947.84;5165487;23;20211;-92
2023/02/27 11:22:18;;;;;;;2.10;1.57;;;;;;;18.08;41.20;97746.50;4975740;28;20231;-91
2023/02/27 11:24:46;;;;;;;2.17;1.50;;;;;;;18.36;41.07;97837.69;5005876;28;20211;-91
2023/02/27 11:27:25;;;;;;;2.13;1.47;;;;;;;18.43;41.18;97805.78;4992469;28;20729;-92
2023/02/27 11:30:02;;;;;;;4.80;1.73;;;;;;;18.20;41.33;97767.41;4971844;28;20251;-92
2023/02/27 11:35:05;;;;;;;3.77;1.50;;;;;;;19.88;41.42;98046.00;5077055;23;20550;-91
2023/02/27 11:37:35;;;;;;;1.83;1.60;;;;;;;18.10;41.37;97739.84;4985706;28;20180;-92
2023/02/27 11:40:19;;;;;;;1.50;1.40;;;;;;;16.83;41.20;97525.38;4971836;28;20228;-92
2023/02/27 11:42:51;;;;;;;3.90;1.63;;;;;;;19.88;41.25;98052.00;4979745;28;20191;-91
2023/02/27 11:45:34;;;;;;;2.20;1.60;;;;;;;19.88;41.37;98035.81;4980882;28;20191;-90
2023/02/27 11:48:24;;;;;;;2.00;1.60;;;;;;;17.36;41.18;97632.88;4994331;28;20196;-91
2023/02/27 11:54:34;;;;;;;3.13;1.57;;;;;;;19.86;41.25;98033.19;5035323;23;20223;-91
2023/02/27 11:57:21;;;;;;;3.37;1.70;;;;;;;19.09;41.23;97896.28;5022935;28;20194;-91
2023/02/27 11:59:50;;;;;;;2.80;1.80;;;;;;;19.15;41.16;97926.22;5016349;28;20191;-92
2023/02/27 12:02:28;;;;;;;2.17;1.60;;;;;;;18.97;41.26;97877.00;5022562;28;20215;-90
2023/02/27 12:04:59;;;;;;;2.20;1.60;;;;;;;19.41;41.34;97947.03;5025784;28;20233;-90
2023/02/27 12:07:33;;;;;;;1.70;1.57;;;;;;;18.39;41.57;97799.72;5021315;28;20206;-92
2023/02/27 12:10:18;;;;;;;2.50;1.60;;;;;;;17.33;41.39;97612.41;4991451;28;20223;-92
2023/02/27 12:12:44;;;;;;;1.70;1.60;;;;;;;19.85;41.53;98026.34;5021178;28;20179;-92
2023/02/27 12:15:18;;;;;;;3.37;1.73;;;;;;;19.84;41.44;98023.72;5027451;28;20202;-90
2023/02/27 12:18:06;;;;;;;3.43;1.80;;;;;;;19.84;41.55;98024.59;4997468;28;20246;-89
2023/02/27 12:20:38;;;;;;;2.40;1.87;;;;;;;19.47;41.46;97954.06;5006522;28;20218;-91
2023/02/27 12:23:12;;;;;;;2.20;1.70;;;;;;;19.48;41.39;97958.38;5026419;28;20301;-91
2023/02/27 12:25:51;;;;;;;1.70;1.60;;;;;;;18.70;41.28;97819.75;5011345;28;20212;-90
2023/02/27 12:28:26;;;;;;;2.03;1.70;;;;;;;19.30;41.36;97920.19;5023100;28;20203;-91
2023/02/27 12:31:06;;;;;;;1.80;1.70;;;;;;;18.11;41.37;97736.47;5024342;28;20212;-91
2023/02/27 12:33:46;;;;;;;2.50;1.53;;;;;;;19.05;41.50;97878.25;5024943;28;20178;-90
2023/02/27 12:36:13;;;;;;;1.87;1.70;;;;;;;19.39;41.38;97937.59;5022469;28;20205;-91
2023/02/27 12:38:39;;;;;;;2.70;1.60;;;;;;;18.48;41.26;97782.31;5023135;28;20185;-93
2023/02/27 12:41:35;;;;;;;3.73;1.73;;;;;;;19.83;41.43;98014.31;5003468;28;20203;-90
2023/02/27 12:44:07;;;;;;;1.97;1.83;;;;;;;19.83;41.22;98009.22;5024117;28;20218;-91
2023/02/27 12:46:43;;;;;;;1.77;1.67;;;;;;;19.84;41.38;98008.44;5022714;28;20244;-90
2023/02/27 12:49:13;;;;;;;2.13;1.80;;;;;;;19.84;41.41;98005.88;5024930;28;20244;-92
2023/02/27 12:51:47;;;;;;;2.87;2.00;;;;;;;19.85;41.11;98007.63;5025142;28;20278;-90
2023/02/27 12:54:52;;;;;;;1.50;1.40;;;;;;;19.85;41.07;98007.63;5022693;28;20213;-92
2023/02/27 12:57:21;;;;;;;1.90;1.70;;;;;;;19.86;41.01;98001.69;5029922;28;20218;-92
2023/02/27 13:00:08;;;;;;;2.43;1.77;;;;;;;19.05;41.09;97865.50;5034373;28;20214;-92